createdAt,value
2023-03-14T00:00:23.824Z,0
2023-03-14T00:01:27.063Z,0
2023-03-14T00:02:24.012Z,0
2023-03-14T00:03:23.854Z,0
2023-03-14T00:04:23.875Z,0
2023-03-14T00:05:23.862Z,0
2023-03-14T00:06:24.070Z,0
2023-03-14T00:07:27.005Z,0
2023-03-14T00:08:23.873Z,0
2023-03-14T00:09:23.728Z,0
2023-03-14T00:10:23.931Z,0
2023-03-14T00:11:23.890Z,0
2023-03-14T00:12:26.741Z,0
2023-03-14T00:13:23.841Z,0
2023-03-14T00:14:23.833Z,0
2023-03-14T00:15:23.850Z,0
2023-03-14T00:16:24.506Z,0
2023-03-14T00:17:23.904Z,0
2023-03-14T00:18:26.625Z,0
2023-03-14T00:19:23.859Z,0
2023-03-14T00:20:23.896Z,0
2023-03-14T00:21:23.942Z,0
2023-03-14T00:22:23.867Z,0
2023-03-14T00:23:26.666Z,0
2023-03-14T00:24:24.034Z,0
2023-03-14T00:25:23.921Z,0
2023-03-14T00:26:24.013Z,0
2023-03-14T00:27:23.880Z,0
2023-03-14T00:28:23.932Z,0
2023-03-14T00:29:26.986Z,0
2023-03-14T00:30:23.864Z,0
2023-03-14T00:31:24.262Z,0
2023-03-14T00:32:24.050Z,0
2023-03-14T00:33:23.905Z,0
2023-03-14T00:34:24.900Z,0
2023-03-14T00:35:23.868Z,0
2023-03-14T00:36:23.941Z,0
2023-03-14T00:37:23.894Z,0
2023-03-14T00:38:23.879Z,0
2023-03-14T00:39:23.911Z,0
2023-03-14T00:40:26.905Z,0
2023-03-14T00:41:24.094Z,0
2023-03-14T00:42:24.048Z,0
2023-03-14T00:43:23.880Z,0
2023-03-14T00:44:24.103Z,0
2023-03-14T00:45:26.984Z,0
2023-03-14T00:46:24.279Z,0
2023-03-14T00:47:23.936Z,0
2023-03-14T00:48:23.928Z,0
2023-03-14T00:49:23.902Z,0
2023-03-14T00:50:23.926Z,0
2023-03-14T00:51:26.919Z,0
2023-03-14T00:52:23.996Z,0
2023-03-14T00:53:23.911Z,0
2023-03-14T00:54:23.908Z,0
2023-03-14T00:55:23.914Z,0
2023-03-14T00:56:26.723Z,0
2023-03-14T00:57:24.013Z,0
2023-03-14T00:58:23.994Z,0
2023-03-14T00:59:23.943Z,0
2023-03-14T01:00:24.093Z,0
2023-03-14T01:01:24.006Z,0
2023-03-14T01:02:27.180Z,0
2023-03-14T01:03:24.158Z,0
2023-03-14T01:04:23.963Z,0
2023-03-14T01:05:23.958Z,0
2023-03-14T01:06:23.983Z,0
2023-03-14T01:07:26.957Z,0
2023-03-14T01:08:23.924Z,0
2023-03-14T01:09:23.916Z,0
2023-03-14T01:10:23.937Z,0
2023-03-14T01:11:23.966Z,0
2023-03-14T01:12:23.937Z,0
2023-03-14T01:13:26.798Z,0
2023-03-14T01:14:23.922Z,0
2023-03-14T01:15:23.958Z,0
2023-03-14T01:16:24.508Z,0
2023-03-14T01:17:23.925Z,0
2023-03-14T01:18:27.037Z,0
2023-03-14T01:19:23.983Z,0
2023-03-14T01:20:23.958Z,0
2023-03-14T01:21:24.024Z,0
2023-03-14T01:22:23.958Z,0
2023-03-14T01:23:24.038Z,0
2023-03-14T01:24:23.969Z,0
2023-03-14T01:25:23.995Z,0
2023-03-14T01:26:23.956Z,0
2023-03-14T01:27:23.982Z,0
2023-03-14T01:28:24.015Z,0
2023-03-14T01:29:26.864Z,0
2023-03-14T01:30:24.016Z,0
2023-03-14T01:31:24.322Z,0
2023-03-14T01:32:24.135Z,0
2023-03-14T01:33:25.013Z,0
2023-03-14T01:34:27.039Z,0
2023-03-14T01:35:23.985Z,0
2023-03-14T01:36:24.138Z,0
2023-03-14T01:37:24.021Z,0
2023-03-14T01:38:24.017Z,0
2023-03-14T01:39:23.984Z,0
2023-03-14T01:40:24.003Z,0
2023-03-14T01:41:24.238Z,0
2023-03-14T01:42:23.982Z,0
2023-03-14T01:43:23.982Z,0
2023-03-14T01:44:24.050Z,0
2023-03-14T01:45:27.231Z,0
2023-03-14T01:46:24.182Z,0
2023-03-14T01:47:24.013Z,0
2023-03-14T01:48:24.054Z,0
2023-03-14T01:49:24.086Z,0
2023-03-14T01:50:24.032Z,0
2023-03-14T01:51:24.037Z,0
2023-03-14T01:52:24.011Z,0
2023-03-14T01:53:24.036Z,0
2023-03-14T01:54:24.105Z,0
2023-03-14T01:55:23.995Z,0
2023-03-14T01:56:27.175Z,0
2023-03-14T01:57:24.034Z,0
2023-03-14T01:58:24.021Z,0
2023-03-14T01:59:24.044Z,0
2023-03-14T02:00:24.123Z,0
2023-03-14T02:01:27.556Z,0
2023-03-14T02:02:23.998Z,0
2023-03-14T02:03:24.219Z,0
2023-03-14T02:04:24.064Z,0
2023-03-14T02:05:24.048Z,0
2023-03-14T02:06:24.204Z,0
2023-03-14T02:07:24.117Z,0
2023-03-14T02:08:24.025Z,0
2023-03-14T02:09:24.139Z,0
2023-03-14T02:10:24.070Z,0
2023-03-14T02:11:24.019Z,0
2023-03-14T02:12:26.996Z,0
2023-03-14T02:13:24.030Z,0
2023-03-14T02:14:24.145Z,0
2023-03-14T02:15:24.070Z,0
2023-03-14T02:16:24.347Z,0
2023-03-14T02:17:25.691Z,0
2023-03-14T02:18:24.045Z,0
2023-03-14T02:19:24.026Z,0
2023-03-14T02:20:24.061Z,0
2023-03-14T02:21:24.083Z,0
2023-03-14T02:22:24.180Z,0
2023-03-14T02:23:27.082Z,0
2023-03-14T02:24:24.053Z,0
2023-03-14T02:25:24.086Z,0
2023-03-14T02:26:24.031Z,0
2023-03-14T02:27:24.117Z,0
2023-03-14T02:28:26.911Z,0
2023-03-14T02:29:24.063Z,0
2023-03-14T02:30:24.100Z,0
2023-03-14T02:31:24.395Z,0
2023-03-14T02:32:24.264Z,0
2023-03-14T02:33:26.710Z,0
2023-03-14T02:34:27.400Z,0
2023-03-14T02:35:24.090Z,0
2023-03-14T02:36:24.228Z,0
2023-03-14T02:37:24.080Z,0
2023-03-14T02:38:24.096Z,0
2023-03-14T02:39:27.063Z,0
2023-03-14T02:40:24.067Z,0
2023-03-14T02:41:24.189Z,0
2023-03-14T02:42:24.146Z,0
2023-03-14T02:43:24.072Z,0
2023-03-14T02:44:25.058Z,0
2023-03-14T02:45:27.219Z,0
2023-03-14T02:46:24.440Z,0
2023-03-14T02:47:24.110Z,0
2023-03-14T02:48:24.085Z,0
2023-03-14T02:49:24.269Z,0
2023-03-14T02:50:27.237Z,0
2023-03-14T02:51:24.098Z,0
2023-03-14T02:52:24.293Z,0
2023-03-14T02:53:24.113Z,0
2023-03-14T02:54:24.101Z,0
2023-03-14T02:55:24.127Z,0
2023-03-14T02:56:27.011Z,0
2023-03-14T02:57:24.130Z,0
2023-03-14T02:58:24.123Z,0
2023-03-14T02:59:24.101Z,0
2023-03-14T03:00:24.106Z,0
2023-03-14T03:01:27.489Z,0
2023-03-14T03:02:24.127Z,0
2023-03-14T03:03:24.474Z,0
2023-03-14T03:04:24.138Z,0
2023-03-14T03:05:25.143Z,0
2023-03-14T03:06:24.158Z,0
2023-03-14T03:07:26.960Z,0
2023-03-14T03:08:24.153Z,0
2023-03-14T03:09:24.126Z,0
2023-03-14T03:10:24.122Z,0
2023-03-14T03:11:24.134Z,0
2023-03-14T03:12:34.008Z,0
2023-03-14T03:13:24.153Z,0
2023-03-14T03:14:24.218Z,0
2023-03-14T03:15:24.142Z,0
2023-03-14T03:16:24.515Z,0
2023-03-14T03:17:24.214Z,0
2023-03-14T03:18:27.198Z,0
2023-03-14T03:19:24.175Z,0
2023-03-14T03:20:24.179Z,0
2023-03-14T03:21:24.347Z,0
2023-03-14T03:22:24.187Z,0
2023-03-14T03:23:27.193Z,0
2023-03-14T03:24:24.149Z,0
2023-03-14T03:25:24.165Z,0
2023-03-14T03:26:24.186Z,0
2023-03-14T03:27:24.175Z,0
2023-03-14T03:28:24.171Z,0
2023-03-14T03:29:25.185Z,0
2023-03-14T03:30:24.160Z,0
2023-03-14T03:31:24.446Z,0
2023-03-14T03:32:24.329Z,0
2023-03-14T03:33:24.185Z,0
2023-03-14T03:34:26.958Z,0
2023-03-14T03:35:24.191Z,0
2023-03-14T03:36:24.333Z,0
2023-03-14T03:37:24.284Z,0
2023-03-14T03:38:24.160Z,0
2023-03-14T03:39:24.232Z,0
2023-03-14T03:40:27.000Z,0
2023-03-14T03:41:24.218Z,0
2023-03-14T03:42:24.245Z,0
2023-03-14T03:43:24.208Z,0
2023-03-14T03:44:24.257Z,0
2023-03-14T03:45:26.986Z,0
2023-03-14T03:46:24.538Z,0
2023-03-14T03:47:24.225Z,0
2023-03-14T03:48:24.227Z,0
2023-03-14T03:49:24.230Z,0
2023-03-14T03:50:24.199Z,0
2023-03-14T03:51:24.205Z,0
2023-03-14T03:52:24.213Z,0
2023-03-14T03:53:40.266Z,0
2023-03-14T03:54:24.226Z,0
2023-03-14T03:55:24.248Z,0
2023-03-14T03:56:25.345Z,0
2023-03-14T03:57:24.243Z,0
2023-03-14T03:58:24.209Z,0
2023-03-14T03:59:24.201Z,0
2023-03-14T04:00:24.220Z,0
2023-03-14T04:01:27.356Z,0
2023-03-14T04:02:25.060Z,0
2023-03-14T04:03:24.893Z,0
2023-03-14T04:04:25.134Z,0
2023-03-14T04:05:24.207Z,0
2023-03-14T04:06:24.401Z,0
2023-03-14T04:07:24.285Z,0
2023-03-14T04:08:24.213Z,0
2023-03-14T04:09:24.312Z,0
2023-03-14T04:10:24.223Z,0
2023-03-14T04:11:26.342Z,0
2023-03-14T04:12:28.912Z,0
2023-03-14T04:13:24.250Z,0
2023-03-14T04:14:24.256Z,0
2023-03-14T04:15:24.229Z,0
2023-03-14T04:16:24.788Z,0
2023-03-14T04:17:25.731Z,0
2023-03-14T04:18:24.305Z,0
2023-03-14T04:19:24.273Z,0
2023-03-14T04:20:24.225Z,0
2023-03-14T04:21:24.246Z,0
2023-03-14T04:22:24.262Z,0
2023-03-14T04:23:27.036Z,0
2023-03-14T04:24:24.240Z,0
2023-03-14T04:25:24.588Z,0
2023-03-14T04:26:24.243Z,0
2023-03-14T04:27:24.286Z,0
2023-03-14T04:28:27.356Z,0
2023-03-14T04:29:25.293Z,0
2023-03-14T04:30:24.336Z,0
2023-03-14T04:31:24.896Z,0
2023-03-14T04:32:24.424Z,0
2023-03-14T04:33:24.330Z,0
2023-03-14T04:34:24.289Z,0
2023-03-14T04:35:24.297Z,0
2023-03-14T04:36:24.297Z,0
2023-03-14T04:37:24.308Z,0
2023-03-14T04:38:24.306Z,0
2023-03-14T04:39:27.316Z,0
2023-03-14T04:40:27.769Z,0
2023-03-14T04:41:24.316Z,0
2023-03-14T04:42:24.311Z,0
2023-03-14T04:43:24.351Z,0
2023-03-14T04:44:25.318Z,0
2023-03-14T04:45:24.293Z,0
2023-03-14T04:46:24.797Z,0
2023-03-14T04:47:24.306Z,0
2023-03-14T04:48:24.454Z,0
2023-03-14T04:49:25.321Z,0
2023-03-14T04:50:27.406Z,0
2023-03-14T04:51:24.349Z,0
2023-03-14T04:52:24.291Z,0
2023-03-14T04:53:24.444Z,0
2023-03-14T04:54:24.288Z,0
2023-03-14T04:55:29.006Z,0
2023-03-14T04:56:24.454Z,0
2023-03-14T04:57:24.351Z,0
2023-03-14T04:58:24.339Z,0
2023-03-14T04:59:24.356Z,0
2023-03-14T05:00:24.405Z,0
2023-03-14T05:01:33.235Z,0
2023-03-14T05:02:24.292Z,0
2023-03-14T05:03:24.755Z,0
2023-03-14T05:04:24.348Z,0
2023-03-14T05:05:24.334Z,0
2023-03-14T05:06:27.158Z,0
2023-03-14T05:07:24.305Z,0
2023-03-14T05:08:24.330Z,0
2023-03-14T05:09:24.311Z,0
2023-03-14T05:10:24.302Z,0
2023-03-14T05:11:24.301Z,0
2023-03-14T05:12:25.427Z,0
2023-03-14T05:13:25.232Z,0
2023-03-14T05:14:24.313Z,0
2023-03-14T05:15:24.443Z,0
2023-03-14T05:16:24.732Z,0
2023-03-14T05:17:27.161Z,0
2023-03-14T05:18:24.572Z,0
2023-03-14T05:19:24.368Z,0
2023-03-14T05:20:24.324Z,0
2023-03-14T05:21:24.367Z,0
2023-03-14T05:22:24.428Z,0
2023-03-14T05:23:27.226Z,0
2023-03-14T05:24:24.320Z,0
2023-03-14T05:25:24.326Z,0
2023-03-14T05:26:24.322Z,0
2023-03-14T05:27:24.328Z,0
2023-03-14T05:28:25.462Z,0
2023-03-14T05:29:24.386Z,0
2023-03-14T05:30:24.342Z,0
2023-03-14T05:31:24.661Z,0
2023-03-14T05:32:24.579Z,0
2023-03-14T05:33:24.452Z,0
2023-03-14T05:34:27.153Z,0
2023-03-14T05:35:24.428Z,0
2023-03-14T05:36:24.409Z,0
2023-03-14T05:37:26.951Z,0
2023-03-14T05:38:24.381Z,0
2023-03-14T05:39:27.504Z,0
2023-03-14T05:40:24.369Z,0
2023-03-14T05:41:24.444Z,0
2023-03-14T05:42:27.369Z,0
2023-03-14T05:43:24.366Z,0
2023-03-14T05:44:24.382Z,0
2023-03-14T05:45:27.254Z,0
2023-03-14T05:46:24.978Z,0
2023-03-14T05:47:24.463Z,0
2023-03-14T05:48:24.451Z,0
2023-03-14T05:49:24.384Z,0
2023-03-14T05:50:27.444Z,0
2023-03-14T05:51:24.389Z,0
2023-03-14T05:52:24.501Z,0
2023-03-14T05:53:24.448Z,0
2023-03-14T05:54:24.382Z,0
2023-03-14T05:55:24.376Z,0
2023-03-14T05:56:25.483Z,0
2023-03-14T05:57:24.579Z,0
2023-03-14T05:58:24.405Z,0
2023-03-14T05:59:24.387Z,0
2023-03-14T06:00:24.476Z,0
2023-03-14T06:01:27.202Z,0
2023-03-14T06:02:24.779Z,0
2023-03-14T06:03:24.754Z,0
2023-03-14T06:04:24.399Z,0
2023-03-14T06:05:24.419Z,0
2023-03-14T06:06:24.218Z,0
2023-03-14T06:07:27.489Z,0
2023-03-14T06:08:27.158Z,0
2023-03-14T06:09:24.101Z,0
2023-03-14T06:10:24.414Z,0
2023-03-14T06:11:24.389Z,0
2023-03-14T06:12:27.336Z,0
2023-03-14T06:13:24.449Z,0
2023-03-14T06:14:24.404Z,0
2023-03-14T06:15:24.437Z,0
2023-03-14T06:16:24.655Z,0
2023-03-14T06:17:24.492Z,0
2023-03-14T06:18:24.457Z,0
2023-03-14T06:19:24.499Z,0
2023-03-14T06:20:24.411Z,0
2023-03-14T06:21:26.678Z,0
2023-03-14T06:22:24.577Z,0
2023-03-14T06:23:26.169Z,0
2023-03-14T06:24:24.465Z,0
2023-03-14T06:25:24.510Z,0
2023-03-14T06:26:24.514Z,0
2023-03-14T06:27:24.512Z,0
2023-03-14T06:28:30.490Z,0
2023-03-14T06:29:24.445Z,0
2023-03-14T06:30:24.442Z,0
2023-03-14T06:31:24.731Z,0
2023-03-14T06:32:24.808Z,0
2023-03-14T06:33:24.531Z,0
2023-03-14T06:34:24.543Z,0
2023-03-14T06:35:24.303Z,5
2023-03-14T06:36:24.442Z,5
2023-03-14T06:37:26.857Z,5
2023-03-14T06:38:24.524Z,5
2023-03-14T06:39:27.608Z,5
2023-03-14T06:40:24.549Z,5
2023-03-14T06:41:24.449Z,5
2023-03-14T06:42:24.620Z,5
2023-03-14T06:43:24.559Z,5
2023-03-14T06:44:24.473Z,5
2023-03-14T06:45:24.508Z,5
2023-03-14T06:46:24.855Z,5
2023-03-14T06:47:24.496Z,5
2023-03-14T06:48:24.321Z,5
2023-03-14T06:49:24.572Z,5
2023-03-14T06:50:27.248Z,5
2023-03-14T06:51:24.510Z,5
2023-03-14T06:52:24.521Z,5
2023-03-14T06:53:24.581Z,5
2023-03-14T06:54:24.497Z,5
2023-03-14T06:55:27.387Z,5
2023-03-14T06:56:24.483Z,5
2023-03-14T06:57:24.477Z,5
2023-03-14T06:58:24.518Z,5
2023-03-14T06:59:24.502Z,5
2023-03-14T07:00:24.238Z,5
2023-03-14T07:01:27.485Z,5
2023-03-14T07:02:44.622Z,5
2023-03-14T07:03:24.605Z,5
2023-03-14T07:04:25.029Z,5
2023-03-14T07:05:24.558Z,5
2023-03-14T07:06:27.419Z,5
2023-03-14T07:07:24.374Z,5
2023-03-14T07:08:24.369Z,5
2023-03-14T07:09:24.615Z,5
2023-03-14T07:10:24.533Z,5
2023-03-14T07:11:25.616Z,5
2023-03-14T07:12:24.522Z,5
2023-03-14T07:13:24.449Z,5
2023-03-14T07:14:26.169Z,5
2023-03-14T07:27:01.506Z,10
2023-03-14T07:27:15.241Z,10
2023-03-14T07:29:10.830Z,15
2023-03-14T07:30:10.801Z,10
2023-03-14T07:31:11.275Z,10
2023-03-14T07:32:13.731Z,10
2023-03-14T07:33:13.685Z,10
2023-03-14T07:34:10.891Z,10
2023-03-14T07:35:10.671Z,10
2023-03-14T07:36:11.148Z,10
2023-03-14T07:37:11.034Z,10
2023-03-14T07:38:13.390Z,10
2023-03-14T07:39:10.843Z,10
2023-03-14T07:40:10.804Z,10
2023-03-14T07:41:10.819Z,10
2023-03-14T07:42:11.125Z,10
2023-03-14T07:43:13.683Z,15
2023-03-14T07:44:10.657Z,15
2023-03-14T07:45:12.608Z,15
2023-03-14T07:46:11.021Z,15
2023-03-14T07:47:12.419Z,20
2023-03-14T07:48:10.833Z,20
2023-03-14T07:49:13.999Z,20
2023-03-14T07:50:10.893Z,20
2023-03-14T07:51:10.828Z,25
2023-03-14T07:52:10.866Z,40
2023-03-14T07:53:10.801Z,30
2023-03-14T07:54:11.893Z,25
2023-03-14T07:55:10.906Z,30
2023-03-14T07:56:10.672Z,35
2023-03-14T07:57:10.863Z,30
2023-03-14T07:58:10.950Z,50
2023-03-14T07:59:13.717Z,80
2023-03-14T08:00:15.826Z,90
2023-03-14T08:01:10.853Z,65
2023-03-14T08:02:10.886Z,55
2023-03-14T08:03:11.121Z,60
2023-03-14T08:04:11.407Z,65
2023-03-14T08:05:14.041Z,45
2023-03-14T08:06:11.092Z,70
2023-03-14T08:07:10.866Z,40
2023-03-14T08:08:10.903Z,30
2023-03-14T08:09:13.965Z,25
2023-03-14T08:10:13.701Z,20
2023-03-14T08:11:10.779Z,15
2023-03-14T08:12:10.906Z,15
2023-03-14T08:13:10.880Z,15
2023-03-14T08:14:11.312Z,15
2023-03-14T08:15:11.068Z,15
2023-03-14T08:16:13.976Z,20
2023-03-14T08:17:10.940Z,20
2023-03-14T08:18:10.961Z,20
2023-03-14T08:19:10.875Z,20
2023-03-14T08:20:10.865Z,15
2023-03-14T08:21:13.951Z,15
2023-03-14T08:22:10.836Z,15
2023-03-14T08:23:10.945Z,15
2023-03-14T08:24:10.935Z,15
2023-03-14T08:25:11.184Z,15
2023-03-14T08:26:10.855Z,20
2023-03-14T08:27:15.676Z,20
2023-03-14T08:28:10.924Z,20
2023-03-14T08:29:10.923Z,20
2023-03-14T08:30:11.285Z,20
2023-03-14T08:31:12.149Z,30
2023-03-14T08:32:13.345Z,20
2023-03-14T08:33:11.384Z,25
2023-03-14T08:34:10.905Z,40
2023-03-14T08:35:10.934Z,25
2023-03-14T08:36:11.292Z,25
2023-03-14T08:37:31.537Z,25
2023-03-14T08:38:11.846Z,25
2023-03-14T08:39:11.270Z,30
2023-03-14T08:40:10.924Z,40
2023-03-14T08:41:10.942Z,35
2023-03-14T08:42:10.968Z,45
2023-03-14T08:43:13.701Z,35
2023-03-14T08:44:11.394Z,35
2023-03-14T08:45:11.019Z,30
2023-03-14T08:46:11.145Z,40
2023-03-14T08:47:11.695Z,35
2023-03-14T08:48:10.935Z,30
2023-03-14T08:49:14.201Z,25
2023-03-14T08:50:13.786Z,20
2023-03-14T08:51:10.937Z,20
2023-03-14T08:52:10.967Z,20
2023-03-14T08:53:11.427Z,20
2023-03-14T08:54:13.836Z,20
2023-03-14T08:55:10.939Z,20
2023-03-14T08:56:10.995Z,20
2023-03-14T08:57:11.070Z,20
2023-03-14T08:58:11.021Z,20
2023-03-14T08:59:10.955Z,25
2023-03-14T09:00:13.881Z,25
2023-03-14T09:01:11.430Z,25
2023-03-14T09:02:13.311Z,30
2023-03-14T09:03:11.279Z,30
2023-03-14T09:04:11.362Z,40
2023-03-14T09:05:11.848Z,35
2023-03-14T09:06:10.984Z,35
2023-03-14T09:07:10.989Z,30
2023-03-14T09:08:11.010Z,30
2023-03-14T09:09:11.020Z,25
2023-03-14T09:10:10.990Z,20
2023-03-14T09:11:17.108Z,20
2023-03-14T09:12:11.015Z,20
2023-03-14T09:13:10.992Z,20
2023-03-14T09:14:11.003Z,20
2023-03-14T09:15:11.027Z,20
2023-03-14T09:16:14.120Z,20
2023-03-14T09:17:11.229Z,20
2023-03-14T09:18:11.175Z,20
2023-03-14T09:19:11.052Z,25
2023-03-14T09:20:11.034Z,30
2023-03-14T09:21:11.034Z,30
2023-03-14T09:22:11.048Z,25
2023-03-14T09:23:10.874Z,25
2023-03-14T09:24:10.960Z,20
2023-03-14T09:25:10.973Z,20
2023-03-14T09:26:11.040Z,20
2023-03-14T09:27:14.053Z,20
2023-03-14T09:28:10.686Z,20
2023-03-14T09:29:11.034Z,20
2023-03-14T09:30:10.966Z,20
2023-03-14T09:31:11.159Z,20
2023-03-14T09:32:11.318Z,20
2023-03-14T09:33:11.055Z,20
2023-03-14T09:34:11.224Z,20
2023-03-14T09:35:11.035Z,15
2023-03-14T09:36:11.019Z,15
2023-03-14T09:37:10.901Z,15
2023-03-14T09:38:10.882Z,15
2023-03-14T09:39:10.851Z,15
2023-03-14T09:40:14.885Z,15
2023-03-14T09:41:10.872Z,15
2023-03-14T09:42:11.036Z,15
2023-03-14T09:43:11.261Z,10
2023-03-14T09:44:10.869Z,15
2023-03-14T09:45:10.894Z,10
2023-03-14T09:46:11.396Z,10
2023-03-14T09:47:11.031Z,10
2023-03-14T09:48:11.046Z,10
2023-03-14T09:49:11.094Z,10
2023-03-14T09:50:11.105Z,10
2023-03-14T09:51:11.070Z,10
2023-03-14T09:52:13.492Z,10
2023-03-14T09:53:11.061Z,10
2023-03-14T09:54:13.976Z,10
2023-03-14T09:55:11.118Z,5
2023-03-14T09:56:11.159Z,5
2023-03-14T09:57:11.303Z,5
2023-03-14T09:58:11.043Z,5
2023-03-14T09:59:13.983Z,5
2023-03-14T10:00:11.083Z,10
2023-03-14T10:01:13.500Z,10
2023-03-14T10:02:11.051Z,15
2023-03-14T10:03:11.062Z,15
2023-03-14T10:04:11.283Z,10
2023-03-14T10:05:19.216Z,15
2023-03-14T10:06:11.059Z,15
2023-03-14T10:07:13.811Z,15
2023-03-14T10:08:11.064Z,15
2023-03-14T10:09:11.088Z,10
2023-03-14T10:10:14.244Z,10
2023-03-14T10:11:14.220Z,10
2023-03-14T10:12:18.580Z,10
2023-03-14T10:13:11.121Z,10
2023-03-14T10:14:11.102Z,10
2023-03-14T10:15:11.190Z,10
2023-03-14T10:16:14.153Z,10
2023-03-14T10:17:11.455Z,10
2023-03-14T10:18:13.958Z,15
2023-03-14T10:19:11.114Z,15
2023-03-14T10:20:10.965Z,15
2023-03-14T10:21:12.572Z,20
2023-03-14T10:22:11.122Z,20
2023-03-14T10:23:11.167Z,20
2023-03-14T10:24:11.104Z,20
2023-03-14T10:25:11.056Z,15
2023-03-14T10:26:11.286Z,15
2023-03-14T10:27:14.043Z,15
2023-03-14T10:28:11.136Z,15
2023-03-14T10:29:10.942Z,15
2023-03-14T10:30:11.113Z,15
2023-03-14T10:31:11.541Z,10
2023-03-14T10:32:14.208Z,10
2023-03-14T10:33:11.079Z,10
2023-03-14T10:34:11.096Z,10
2023-03-14T10:35:11.159Z,10
2023-03-14T10:36:13.914Z,10
2023-03-14T10:37:13.919Z,10
2023-03-14T10:38:14.118Z,10
2023-03-14T10:39:11.045Z,10
2023-03-14T10:40:11.376Z,10
2023-03-14T10:41:11.126Z,10
2023-03-14T10:42:11.104Z,10
2023-03-14T10:43:14.607Z,5
2023-03-14T10:44:11.105Z,5
2023-03-14T10:45:10.879Z,5
2023-03-14T10:46:11.378Z,10
2023-03-14T10:47:10.815Z,10
2023-03-14T10:48:14.413Z,10
2023-03-14T10:49:11.144Z,15
2023-03-14T10:50:10.871Z,15
2023-03-14T10:51:10.551Z,20
2023-03-14T10:52:10.472Z,20
2023-03-14T10:53:12.733Z,20
2023-03-14T10:54:13.835Z,20
2023-03-14T10:55:11.175Z,20
2023-03-14T10:56:11.185Z,20
2023-03-14T10:57:11.140Z,20
2023-03-14T10:58:11.260Z,20
2023-03-14T10:59:14.306Z,20
2023-03-14T11:00:11.146Z,20
2023-03-14T11:01:11.223Z,20
2023-03-14T11:02:12.869Z,15
2023-03-14T11:03:11.193Z,20
2023-03-14T11:04:11.189Z,20
2023-03-14T11:05:14.290Z,25
2023-03-14T11:06:11.230Z,25
2023-03-14T11:07:11.147Z,25
2023-03-14T11:08:13.357Z,25
2023-03-14T11:09:11.470Z,25
2023-03-14T11:10:14.292Z,25
2023-03-14T11:11:11.173Z,30
2023-03-14T11:12:11.199Z,25
2023-03-14T11:13:11.033Z,25
2023-03-14T11:14:11.170Z,30
2023-03-14T11:15:11.209Z,30
2023-03-14T11:16:14.302Z,25
2023-03-14T11:17:11.230Z,30
2023-03-14T11:18:12.107Z,40
2023-03-14T11:19:11.583Z,20
2023-03-14T11:20:11.163Z,20
2023-03-14T11:21:14.081Z,20
2023-03-14T11:22:11.199Z,20
2023-03-14T11:23:11.259Z,20
2023-03-14T11:24:11.178Z,20
2023-03-14T11:25:11.365Z,20
2023-03-14T11:26:11.216Z,30
2023-03-14T11:27:14.413Z,25
2023-03-14T11:28:11.204Z,35
2023-03-14T11:29:11.428Z,60
2023-03-14T11:30:11.338Z,80
2023-03-14T11:31:11.706Z,75
2023-03-14T11:32:12.474Z,75
2023-03-14T11:33:12.378Z,70
2023-03-14T11:34:11.370Z,70
2023-03-14T11:35:11.284Z,65
2023-03-14T11:36:12.498Z,65
2023-03-14T11:37:11.303Z,65
2023-03-14T11:38:11.511Z,75
2023-03-14T11:39:11.328Z,70
2023-03-14T11:40:11.385Z,70
2023-03-14T11:41:11.424Z,75
2023-03-14T11:42:13.211Z,65
2023-03-14T11:43:14.383Z,25
2023-03-14T11:44:11.302Z,70
2023-03-14T11:45:11.224Z,75
2023-03-14T11:46:11.774Z,75
2023-03-14T11:47:11.514Z,75
2023-03-14T11:48:11.372Z,25
2023-03-14T11:49:11.394Z,60
2023-03-14T11:50:11.444Z,85
2023-03-14T11:51:11.444Z,85
2023-03-14T11:52:11.359Z,25
2023-03-14T11:53:11.751Z,25
2023-03-14T11:54:14.481Z,35
2023-03-14T11:55:11.426Z,25
2023-03-14T11:56:14.926Z,40
2023-03-14T11:57:11.468Z,25
2023-03-14T11:58:11.321Z,25
2023-03-14T11:59:12.126Z,50
2023-03-14T12:00:11.344Z,30
2023-03-14T12:01:11.458Z,25
2023-03-14T12:02:12.571Z,55
2023-03-14T12:03:11.512Z,20
2023-03-14T12:04:11.840Z,25
2023-03-14T12:05:11.787Z,30
2023-03-14T12:06:11.460Z,30
2023-03-14T12:07:11.450Z,25
2023-03-14T12:08:11.513Z,20
2023-03-14T12:09:11.430Z,20
2023-03-14T12:10:14.624Z,20
2023-03-14T12:11:11.268Z,20
2023-03-14T12:12:11.490Z,20
2023-03-14T12:13:11.503Z,20
2023-03-14T12:14:11.499Z,20
2023-03-14T12:15:11.524Z,20
2023-03-14T12:16:11.788Z,15
2023-03-14T12:17:11.366Z,20
2023-03-14T12:18:11.414Z,20
2023-03-14T12:19:11.447Z,20
2023-03-14T12:20:11.532Z,20
2023-03-14T12:21:14.683Z,20
2023-03-14T12:22:11.472Z,25
2023-03-14T12:23:11.414Z,65
2023-03-14T12:24:11.606Z,40
2023-03-14T12:25:11.475Z,25
2023-03-14T12:26:14.435Z,20
2023-03-14T12:27:11.585Z,20
2023-03-14T12:28:11.600Z,25
2023-03-14T12:29:11.468Z,25
2023-03-14T12:30:13.703Z,25
2023-03-14T12:31:11.424Z,25
2023-03-14T12:32:14.485Z,20
2023-03-14T12:33:11.649Z,20
2023-03-14T12:34:11.392Z,20
2023-03-14T12:35:11.300Z,20
2023-03-14T12:36:11.559Z,25
2023-03-14T12:37:14.613Z,20
2023-03-14T12:38:11.309Z,20
2023-03-14T12:39:11.352Z,20
2023-03-14T12:40:13.813Z,20
2023-03-14T12:41:11.308Z,15
2023-03-14T12:42:11.351Z,20
2023-03-14T12:43:14.227Z,20
2023-03-14T12:44:11.524Z,20
2023-03-14T12:45:11.191Z,15
2023-03-14T12:46:11.746Z,15
2023-03-14T12:47:11.504Z,10
2023-03-14T12:48:14.146Z,5
2023-03-14T12:49:11.499Z,5
2023-03-14T12:50:11.343Z,5
2023-03-14T12:51:11.357Z,5
2023-03-14T12:52:11.333Z,5
2023-03-14T12:53:14.233Z,5
2023-03-14T12:54:14.527Z,10
2023-03-14T12:55:11.407Z,15
2023-03-14T12:56:11.355Z,15
2023-03-14T12:57:11.439Z,20
2023-03-14T12:58:11.361Z,20
2023-03-14T12:59:14.289Z,20
2023-03-14T13:00:11.410Z,15
2023-03-14T13:01:14.418Z,15
2023-03-14T13:02:11.494Z,15
2023-03-14T13:03:11.382Z,15
2023-03-14T13:04:12.588Z,10
2023-03-14T13:05:12.252Z,10
2023-03-14T13:06:11.390Z,10
2023-03-14T13:07:11.397Z,10
2023-03-14T13:08:11.412Z,5
2023-03-14T13:09:11.381Z,5
2023-03-14T13:10:14.762Z,5
2023-03-14T13:11:11.412Z,5
2023-03-14T13:12:11.434Z,5
2023-03-14T13:13:11.831Z,5
2023-03-14T13:14:11.439Z,5
2023-03-14T13:15:15.389Z,5
2023-03-14T13:16:11.673Z,5
2023-03-14T13:17:43.260Z,5
2023-03-14T13:18:12.399Z,5
2023-03-14T13:19:12.369Z,5
2023-03-14T13:20:11.455Z,5
2023-03-14T13:21:14.175Z,5
2023-03-14T13:22:11.417Z,5
2023-03-14T13:23:11.461Z,5
2023-03-14T13:24:11.469Z,5
2023-03-14T13:25:11.465Z,5
2023-03-14T13:26:14.522Z,5
2023-03-14T13:27:11.395Z,5
2023-03-14T13:28:11.359Z,5
2023-03-14T13:29:11.396Z,5
2023-03-14T13:30:11.539Z,5
2023-03-14T13:31:12.052Z,5
2023-03-14T13:32:14.631Z,5
2023-03-14T13:33:11.756Z,5
2023-03-14T13:34:11.572Z,5
2023-03-14T13:35:11.500Z,5
2023-03-14T13:36:12.191Z,5
2023-03-14T13:37:14.359Z,5
2023-03-14T13:38:27.162Z,5
2023-03-14T13:39:11.443Z,5
2023-03-14T13:40:11.672Z,10
2023-03-14T13:41:11.132Z,10
2023-03-14T13:42:11.204Z,10
2023-03-14T13:43:14.138Z,10
2023-03-14T13:44:11.937Z,10
2023-03-14T13:45:11.953Z,10
2023-03-14T13:46:13.932Z,10
2023-03-14T13:47:12.113Z,10
2023-03-14T13:48:15.060Z,5
2023-03-14T13:49:12.377Z,5
2023-03-14T13:50:12.504Z,5
2023-03-14T13:51:12.297Z,5
2023-03-14T13:52:12.221Z,5
2023-03-14T13:53:11.925Z,5
2023-03-14T13:54:15.331Z,5
2023-03-14T13:55:11.559Z,5
2023-03-14T13:56:12.654Z,0
2023-03-14T13:57:15.271Z,0
2023-03-14T13:58:12.334Z,5
2023-03-14T13:59:15.177Z,5
2023-03-14T14:00:12.531Z,5
2023-03-14T14:01:12.621Z,5
2023-03-14T14:02:12.285Z,5
2023-03-14T14:03:12.398Z,5
2023-03-14T14:04:12.878Z,5
2023-03-14T14:05:14.950Z,5
2023-03-14T14:06:11.641Z,5
2023-03-14T14:07:11.780Z,5
2023-03-14T14:08:11.494Z,5
2023-03-14T14:09:11.508Z,5
2023-03-14T14:10:14.412Z,5
2023-03-14T14:11:11.511Z,5
2023-03-14T14:12:27.206Z,5
2023-03-14T14:13:11.506Z,5
2023-03-14T14:14:11.475Z,10
2023-03-14T14:15:11.492Z,10
2023-03-14T14:16:12.257Z,10
2023-03-14T14:17:11.499Z,10
2023-03-14T14:18:12.027Z,5
2023-03-14T14:19:14.502Z,5
2023-03-14T14:20:11.831Z,5
2023-03-14T14:21:14.718Z,5
2023-03-14T14:22:12.185Z,5
2023-03-14T14:23:11.535Z,5
2023-03-14T14:24:13.635Z,5
2023-03-14T14:25:11.508Z,5
2023-03-14T14:26:13.752Z,0
2023-03-14T14:27:11.578Z,0
2023-03-14T14:28:11.564Z,0
2023-03-14T14:29:11.535Z,5
2023-03-14T14:30:11.685Z,5
2023-03-14T14:31:12.019Z,0
2023-03-14T14:32:11.567Z,0
2023-03-14T14:33:12.243Z,0
2023-03-14T14:34:11.734Z,5
2023-03-14T14:35:11.613Z,5
2023-03-14T14:36:11.814Z,5
2023-03-14T14:37:15.566Z,5
2023-03-14T14:38:11.498Z,5
2023-03-14T14:39:11.556Z,5
2023-03-14T14:40:11.548Z,5
2023-03-14T14:41:11.567Z,5
2023-03-14T14:42:11.369Z,5
2023-03-14T14:43:11.537Z,5
2023-03-14T14:44:11.556Z,5
2023-03-14T14:45:11.565Z,5
2023-03-14T14:46:11.935Z,5